createdAt,value
2023-03-16T00:00:54.204Z,99.90
2023-03-16T00:03:21.821Z,99.90
2023-03-16T00:05:53.092Z,99.90
2023-03-16T00:08:21.031Z,99.90
2023-03-16T00:10:49.230Z,99.90
2023-03-16T00:13:20.266Z,99.90
2023-03-16T00:15:53.798Z,99.90
2023-03-16T00:18:23.494Z,99.90
2023-03-16T00:20:53.177Z,99.90
2023-03-16T00:23:27.353Z,99.90
2023-03-16T00:26:00.174Z,99.90
2023-03-16T00:28:28.943Z,99.90
2023-03-16T00:30:59.305Z,99.90
2023-03-16T00:33:27.674Z,99.90
2023-03-16T00:36:02.498Z,99.90
2023-03-16T00:38:34.664Z,99.90
2023-03-16T00:41:06.408Z,99.90
2023-03-16T00:43:41.833Z,99.90
2023-03-16T00:46:15.708Z,99.90
2023-03-16T00:48:46.526Z,99.90
2023-03-16T00:51:17.079Z,99.90
2023-03-16T00:53:46.568Z,99.90
2023-03-16T00:56:14.528Z,99.90
2023-03-16T00:58:43.277Z,99.90
2023-03-16T01:01:17.078Z,99.90
2023-03-16T01:03:45.027Z,99.90
2023-03-16T01:06:17.200Z,99.90
2023-03-16T01:08:45.173Z,99.90
2023-03-16T01:11:18.936Z,99.90
2023-03-16T01:13:48.155Z,99.90
2023-03-16T01:16:18.880Z,99.90
2023-03-16T01:18:50.296Z,99.90
2023-03-16T01:21:18.328Z,99.90
2023-03-16T01:23:46.083Z,99.90
2023-03-16T01:26:15.571Z,99.90
2023-03-16T01:28:44.596Z,99.90
2023-03-16T01:31:14.483Z,99.90
2023-03-16T01:33:43.478Z,99.90
2023-03-16T01:36:16.893Z,99.90
2023-03-16T01:38:54.688Z,99.90
2023-03-16T01:41:26.997Z,99.90
2023-03-16T01:43:58.315Z,99.90
2023-03-16T01:46:29.223Z,99.90
2023-03-16T01:49:20.640Z,99.90
2023-03-16T01:52:02.233Z,99.90
2023-03-16T01:54:35.802Z,99.90
2023-03-16T01:57:06.506Z,99.90
2023-03-16T01:59:46.786Z,99.90
2023-03-16T02:02:18.538Z,99.90
2023-03-16T02:05:07.142Z,99.90
2023-03-16T02:07:42.419Z,99.90
2023-03-16T02:10:12.499Z,99.90
2023-03-16T02:12:40.392Z,99.90
2023-03-16T02:15:08.658Z,99.90
2023-03-16T02:17:37.296Z,99.90
2023-03-16T02:20:29.959Z,99.90
2023-03-16T02:22:58.715Z,99.90
2023-03-16T02:25:42.813Z,99.90
2023-03-16T02:28:52.089Z,99.90
2023-03-16T02:31:22.179Z,99.90
2023-03-16T02:33:52.773Z,99.90
2023-03-16T02:36:21.431Z,99.90
2023-03-16T02:38:48.977Z,99.90
2023-03-16T02:41:21.386Z,99.90
2023-03-16T02:43:58.603Z,99.90
2023-03-16T02:46:35.923Z,99.90
2023-03-16T02:49:12.520Z,99.90
2023-03-16T02:51:40.964Z,99.90
2023-03-16T02:54:08.487Z,99.90
2023-03-16T02:56:36.501Z,99.90
2023-03-16T02:59:04.259Z,99.90
2023-03-16T03:01:34.805Z,99.90
2023-03-16T03:04:04.010Z,99.90
2023-03-16T03:06:32.911Z,99.90
2023-03-16T03:09:02.268Z,99.90
2023-03-16T03:11:30.684Z,99.90
2023-03-16T03:13:58.512Z,99.90
2023-03-16T03:16:28.449Z,99.90
2023-03-16T03:18:58.792Z,99.90
2023-03-16T03:21:28.891Z,99.90
2023-03-16T03:23:56.406Z,99.90
2023-03-16T03:26:24.883Z,99.90
2023-03-16T03:28:53.227Z,99.90
2023-03-16T03:31:22.517Z,99.90
2023-03-16T03:33:53.629Z,99.90
2023-03-16T03:36:22.609Z,99.90
2023-03-16T03:38:50.247Z,99.90
2023-03-16T03:41:22.600Z,99.90
2023-03-16T03:43:51.324Z,99.90
2023-03-16T03:46:19.746Z,99.90
2023-03-16T03:48:47.233Z,99.90
2023-03-16T03:51:14.733Z,99.90
2023-03-16T03:54:02.706Z,99.90
2023-03-16T03:56:43.424Z,99.90
2023-03-16T03:59:14.940Z,99.90
2023-03-16T04:02:01.445Z,99.90
2023-03-16T04:04:39.999Z,99.90
2023-03-16T04:07:10.061Z,99.90
2023-03-16T04:09:37.924Z,99.90
2023-03-16T04:12:06.394Z,99.90
2023-03-16T04:14:35.010Z,99.90
2023-03-16T04:17:07.419Z,99.90
2023-03-16T04:19:37.299Z,99.90
2023-03-16T04:22:09.407Z,99.90
2023-03-16T04:24:37.091Z,99.90
2023-03-16T04:27:04.834Z,99.90
2023-03-16T04:29:32.872Z,99.90
2023-03-16T04:32:00.347Z,99.90
2023-03-16T04:34:29.807Z,99.90
2023-03-16T04:37:02.257Z,99.90
2023-03-16T04:39:30.576Z,99.90
2023-03-16T04:41:58.006Z,99.90
2023-03-16T04:44:27.173Z,99.90
2023-03-16T04:46:55.053Z,99.90
2023-03-16T04:49:24.987Z,99.90
2023-03-16T04:51:52.616Z,99.90
2023-03-16T04:54:21.592Z,99.90
2023-03-16T04:56:49.563Z,99.90
2023-03-16T04:59:28.248Z,99.90
2023-03-16T05:02:06.085Z,99.90
2023-03-16T05:04:34.597Z,99.90
2023-03-16T05:07:03.380Z,99.90
2023-03-16T05:09:35.774Z,99.90
2023-03-16T05:12:03.769Z,99.90
2023-03-16T05:14:36.010Z,99.90
2023-03-16T05:17:16.170Z,99.90
2023-03-16T05:19:46.299Z,99.90
2023-03-16T05:22:16.242Z,99.90
2023-03-16T05:25:04.723Z,99.90
2023-03-16T05:27:34.206Z,99.90
2023-03-16T05:30:03.439Z,99.90
2023-03-16T05:32:33.098Z,99.90
2023-03-16T05:35:02.454Z,99.90
2023-03-16T05:37:31.347Z,99.90
2023-03-16T05:39:59.149Z,99.90
2023-03-16T05:42:29.460Z,99.90
2023-03-16T05:45:01.738Z,99.90
2023-03-16T05:47:47.260Z,99.90
2023-03-16T05:50:17.035Z,99.90
2023-03-16T05:52:46.256Z,99.90
2023-03-16T05:55:20.602Z,99.90
2023-03-16T05:57:54.490Z,99.90
2023-03-16T06:00:22.861Z,99.90
2023-03-16T06:03:00.241Z,99.90
2023-03-16T06:05:33.976Z,99.90
2023-03-16T06:08:02.741Z,99.90
2023-03-16T06:10:31.132Z,99.90
2023-03-16T06:12:59.963Z,99.90
2023-03-16T06:15:30.779Z,99.90
2023-03-16T06:18:01.115Z,99.90
2023-03-16T06:20:29.432Z,99.90
2023-03-16T06:22:57.344Z,99.90
2023-03-16T06:25:25.193Z,99.90
2023-03-16T06:27:52.898Z,99.90
2023-03-16T06:30:21.282Z,99.90
2023-03-16T06:32:48.865Z,99.90
2023-03-16T06:35:16.538Z,99.90
2023-03-16T06:37:59.187Z,99.90
2023-03-16T06:40:56.225Z,99.90
2023-03-16T06:43:24.803Z,99.90
2023-03-16T06:45:53.872Z,99.90
2023-03-16T06:48:22.731Z,99.90
2023-03-16T06:50:50.676Z,99.90
2023-03-16T06:53:23.645Z,99.90
2023-03-16T06:55:52.359Z,99.90
2023-03-16T06:58:20.238Z,99.90
2023-03-16T07:00:48.104Z,99.90
2023-03-16T07:03:15.882Z,99.90
2023-03-16T07:05:49.036Z,99.90
2023-03-16T07:08:16.820Z,99.90
2023-03-16T07:10:44.627Z,99.90
2023-03-16T07:13:12.352Z,99.90
2023-03-16T07:15:40.424Z,99.90
2023-03-16T07:18:08.342Z,99.90
2023-03-16T07:20:35.895Z,99.90
2023-03-16T07:23:06.429Z,99.90
2023-03-16T07:25:35.535Z,99.90
2023-03-16T07:28:04.567Z,99.90
2023-03-16T07:30:37.840Z,99.90
2023-03-16T07:33:17.679Z,99.90
2023-03-16T07:35:45.314Z,99.90
2023-03-16T07:38:12.908Z,99.90
2023-03-16T07:40:46.065Z,99.90
2023-03-16T07:43:20.504Z,99.90
2023-03-16T07:45:52.475Z,99.90
2023-03-16T07:48:20.942Z,99.90
2023-03-16T07:50:59.663Z,99.90
2023-03-16T07:53:28.436Z,99.90
2023-03-16T07:56:12.779Z,99.90
2023-03-16T07:58:44.943Z,99.90
2023-03-16T08:01:12.661Z,99.90
2023-03-16T08:03:40.296Z,99.90
2023-03-16T08:06:07.930Z,99.90
2023-03-16T08:08:36.367Z,99.90
2023-03-16T08:11:04.044Z,99.90
2023-03-16T08:13:58.225Z,99.90
2023-03-16T08:16:41.391Z,99.90
2023-03-16T08:19:12.031Z,99.90
2023-03-16T08:21:58.308Z,99.90
2023-03-16T08:24:31.138Z,99.90
2023-03-16T08:27:00.947Z,99.90
2023-03-16T08:29:30.775Z,99.90
2023-03-16T08:32:01.261Z,99.90
2023-03-16T08:34:33.647Z,99.90
2023-03-16T08:37:01.156Z,99.90
2023-03-16T08:39:29.450Z,99.90
2023-03-16T08:41:57.295Z,99.90
2023-03-16T08:44:47.813Z,99.90
2023-03-16T08:47:16.112Z,99.90
2023-03-16T08:49:57.390Z,99.90
2023-03-16T08:52:25.934Z,99.90
2023-03-16T08:55:02.916Z,99.90
2023-03-16T08:57:34.175Z,99.90
2023-03-16T09:00:01.785Z,99.90
2023-03-16T09:02:29.242Z,99.90
2023-03-16T09:04:57.074Z,99.90
2023-03-16T09:07:24.915Z,99.90
2023-03-16T09:09:52.708Z,99.90
2023-03-16T09:12:20.680Z,99.90
2023-03-16T09:14:49.034Z,99.90
2023-03-16T09:17:16.556Z,99.90
2023-03-16T09:19:53.189Z,99.90
2023-03-16T09:22:22.566Z,99.90
2023-03-16T09:24:51.236Z,99.90
2023-03-16T09:27:19.127Z,99.90
2023-03-16T09:29:46.869Z,99.90
2023-03-16T09:32:14.639Z,99.90
2023-03-16T09:34:42.480Z,99.90
2023-03-16T09:37:10.265Z,99.90
2023-03-16T09:39:38.322Z,99.90
2023-03-16T09:42:19.337Z,99.90
2023-03-16T09:45:05.536Z,99.90
2023-03-16T09:47:36.564Z,99.90
2023-03-16T09:50:35.285Z,99.90
2023-03-16T09:53:29.421Z,99.90
2023-03-16T09:56:10.019Z,99.90
2023-03-16T09:58:37.683Z,99.90
2023-03-16T10:01:28.879Z,99.90
2023-03-16T10:04:00.663Z,99.90
2023-03-16T10:06:29.445Z,99.90
2023-03-16T10:09:02.206Z,99.90
2023-03-16T10:11:39.935Z,99.90
2023-03-16T10:14:20.596Z,99.90
2023-03-16T10:16:52.632Z,99.90
2023-03-16T10:19:42.576Z,99.90
2023-03-16T10:22:21.274Z,99.90
2023-03-16T10:25:04.505Z,99.90
2023-03-16T10:27:36.597Z,99.90
2023-03-16T10:30:19.745Z,99.90
2023-03-16T10:32:48.453Z,99.90
2023-03-16T10:35:42.070Z,99.90
2023-03-16T10:38:33.046Z,99.90
2023-03-16T10:41:00.913Z,99.90
2023-03-16T10:43:29.775Z,99.90
2023-03-16T10:46:18.039Z,99.90
2023-03-16T10:49:00.460Z,99.90
2023-03-16T10:51:31.946Z,99.90
2023-03-16T10:54:16.360Z,99.90
2023-03-16T10:56:47.140Z,99.90
2023-03-16T10:59:37.041Z,99.90
2023-03-16T11:02:17.666Z,99.90
2023-03-16T11:04:48.015Z,99.90
2023-03-16T11:07:18.663Z,99.90
2023-03-16T11:09:47.811Z,99.90
2023-03-16T11:12:30.570Z,99.90
2023-03-16T11:15:25.263Z,99.90
2023-03-16T11:17:54.664Z,99.90
2023-03-16T11:20:28.639Z,99.90
2023-03-16T11:22:56.269Z,99.60
2023-03-16T11:25:29.168Z,99.70
2023-03-16T11:28:12.854Z,99.30
2023-03-16T11:31:03.463Z,99.60
2023-03-16T11:33:32.100Z,99.60
2023-03-16T11:36:08.892Z,98.90
2023-03-16T11:39:12.882Z,98.80
2023-03-16T11:42:10.156Z,99.20
2023-03-16T11:44:44.678Z,99.00
2023-03-16T11:47:20.726Z,98.90
2023-03-16T11:49:57.227Z,98.70
2023-03-16T11:52:30.942Z,98.60
2023-03-16T11:55:34.403Z,98.60
2023-03-16T11:58:17.308Z,98.30
2023-03-16T12:01:04.345Z,98.00
2023-03-16T12:03:43.898Z,97.80
2023-03-16T12:06:41.726Z,97.80
2023-03-16T12:09:27.517Z,97.90
2023-03-16T12:12:25.915Z,97.80
2023-03-16T12:15:24.261Z,97.80
2023-03-16T12:17:58.687Z,97.90
2023-03-16T12:20:50.312Z,98.20
2023-03-16T12:23:43.914Z,98.30
2023-03-16T12:26:12.488Z,98.40
2023-03-16T12:28:42.166Z,98.30
2023-03-16T12:31:43.000Z,98.10
2023-03-16T12:34:36.208Z,97.80
2023-03-16T12:37:22.221Z,97.60
2023-03-16T12:40:07.825Z,97.70
2023-03-16T12:42:50.056Z,97.70
2023-03-16T12:45:27.157Z,97.70
2023-03-16T12:48:10.878Z,97.70
2023-03-16T12:50:57.126Z,97.80
2023-03-16T12:53:39.870Z,97.90
2023-03-16T12:56:10.104Z,97.90
2023-03-16T12:58:45.580Z,98.00
2023-03-16T13:01:15.463Z,98.20
2023-03-16T13:03:44.254Z,98.20
2023-03-16T13:06:25.171Z,98.10
2023-03-16T13:08:56.948Z,98.00
2023-03-16T13:11:25.329Z,98.20
2023-03-16T13:14:01.827Z,98.20
2023-03-16T13:16:39.163Z,98.00
2023-03-16T13:19:28.028Z,98.00
2023-03-16T13:22:18.697Z,97.90
2023-03-16T13:24:57.162Z,97.90
2023-03-16T13:27:33.453Z,97.70
2023-03-16T13:30:15.824Z,97.80
2023-03-16T13:32:43.802Z,97.50
2023-03-16T13:35:15.547Z,97.20
2023-03-16T13:37:43.835Z,97.00
2023-03-16T13:40:23.074Z,96.80
2023-03-16T13:42:53.132Z,96.60
2023-03-16T13:45:23.867Z,96.50
2023-03-16T13:47:51.697Z,96.40
2023-03-16T13:50:20.753Z,96.30
2023-03-16T13:52:57.440Z,96.50
2023-03-16T13:55:35.596Z,95.90
2023-03-16T13:58:04.542Z,95.80
2023-03-16T14:00:35.443Z,95.70
2023-03-16T14:03:18.184Z,95.50
2023-03-16T14:05:47.503Z,95.20
2023-03-16T14:08:20.164Z,95.30
2023-03-16T14:10:48.516Z,95.10
2023-03-16T14:13:50.547Z,94.80
2023-03-16T14:16:20.115Z,94.60
2023-03-16T14:19:13.029Z,94.10
2023-03-16T14:21:45.851Z,93.90
2023-03-16T14:24:40.617Z,93.40
2023-03-16T14:27:18.802Z,93.30
2023-03-16T14:29:53.628Z,93.00
2023-03-16T14:32:30.219Z,93.30
2023-03-16T14:35:11.067Z,93.10
2023-03-16T14:37:39.541Z,93.00
2023-03-16T14:40:20.735Z,93.30
2023-03-16T14:42:48.348Z,93.40
2023-03-16T14:45:17.552Z,93.60
2023-03-16T14:47:47.639Z,93.90
2023-03-16T14:50:25.253Z,94.20
2023-03-16T14:52:56.125Z,94.20
2023-03-16T14:55:25.141Z,94.40
2023-03-16T14:57:53.308Z,94.50
2023-03-16T15:00:21.961Z,94.50
2023-03-16T15:03:03.393Z,94.50
2023-03-16T15:05:37.399Z,94.40
2023-03-16T15:08:07.169Z,94.70
2023-03-16T15:10:36.218Z,94.90
2023-03-16T15:13:13.404Z,94.90
2023-03-16T15:15:42.584Z,95.00
2023-03-16T15:18:10.845Z,95.10
2023-03-16T15:20:44.197Z,95.20
2023-03-16T15:23:16.479Z,95.00
2023-03-16T15:25:46.650Z,95.00
2023-03-16T15:28:25.769Z,94.90
2023-03-16T15:30:54.706Z,94.90
2023-03-16T15:33:22.259Z,95.00
2023-03-16T15:35:51.419Z,94.70
2023-03-16T15:38:26.706Z,94.50
2023-03-16T15:40:55.199Z,94.30
2023-03-16T15:43:24.801Z,94.20
2023-03-16T15:45:54.156Z,93.80
2023-03-16T15:48:24.481Z,93.70
2023-03-16T15:50:57.545Z,93.40
2023-03-16T15:53:36.116Z,93.00
2023-03-16T15:56:13.976Z,92.80
2023-03-16T15:58:43.410Z,92.80
2023-03-16T16:01:22.775Z,92.90
2023-03-16T16:03:51.801Z,92.60
2023-03-16T16:06:20.415Z,92.60
2023-03-16T16:08:48.262Z,92.50
2023-03-16T16:11:21.240Z,92.70
2023-03-16T16:13:49.249Z,92.70
2023-03-16T16:16:19.156Z,92.70
2023-03-16T16:18:48.373Z,92.80
2023-03-16T16:21:29.091Z,92.80
2023-03-16T16:23:56.815Z,92.70
2023-03-16T16:26:49.969Z,92.80
2023-03-16T16:29:25.625Z,92.70
2023-03-16T16:31:53.370Z,92.60
2023-03-16T16:34:24.339Z,92.50
2023-03-16T16:36:55.889Z,92.40
2023-03-16T16:39:24.136Z,92.20
2023-03-16T16:41:54.746Z,92.10
2023-03-16T16:44:25.632Z,92.20
2023-03-16T16:46:54.388Z,92.20
2023-03-16T16:49:28.341Z,92.20
2023-03-16T16:51:56.589Z,92.10
2023-03-16T16:54:27.483Z,92.00
2023-03-16T16:56:55.566Z,92.10
2023-03-16T16:59:34.117Z,92.20
2023-03-16T17:02:04.113Z,92.40
2023-03-16T17:04:31.878Z,92.40
2023-03-16T17:07:01.885Z,92.40
2023-03-16T17:09:30.708Z,92.40
2023-03-16T17:12:00.991Z,92.50
2023-03-16T17:14:31.050Z,92.50
2023-03-16T17:17:05.164Z,92.60
2023-03-16T17:19:33.005Z,92.80
2023-03-16T17:22:01.416Z,92.90
2023-03-16T17:24:29.692Z,93.00
2023-03-16T17:27:00.244Z,93.10
2023-03-16T17:29:33.587Z,93.20
2023-03-16T17:32:14.307Z,93.30
2023-03-16T17:34:41.813Z,93.40
2023-03-16T17:37:18.558Z,93.50
2023-03-16T17:39:45.940Z,94.00
2023-03-16T17:42:17.931Z,93.70
2023-03-16T17:44:48.011Z,93.60
2023-03-16T17:47:22.450Z,93.70
2023-03-16T17:49:50.790Z,93.70
2023-03-16T17:52:24.005Z,93.70
2023-03-16T17:54:53.635Z,93.80
2023-03-16T17:57:31.143Z,93.90
2023-03-16T18:00:00.686Z,94.00
2023-03-16T18:02:46.675Z,94.10
2023-03-16T18:05:27.122Z,94.10
2023-03-16T18:07:56.426Z,94.10
2023-03-16T18:10:29.808Z,94.20
2023-03-16T18:13:01.961Z,94.70
2023-03-16T18:15:33.877Z,94.40
2023-03-16T18:18:02.449Z,94.40
2023-03-16T18:20:36.502Z,94.50
2023-03-16T18:23:17.132Z,94.60
2023-03-16T18:25:45.873Z,94.60
2023-03-16T18:28:13.933Z,94.70
2023-03-16T18:30:44.429Z,94.80
2023-03-16T18:33:31.066Z,94.90
2023-03-16T18:36:01.600Z,95.00
2023-03-16T18:38:31.794Z,95.00
2023-03-16T18:41:01.941Z,95.00
2023-03-16T18:43:29.792Z,95.00
2023-03-16T18:45:57.368Z,95.00
2023-03-16T18:48:32.711Z,95.10
2023-03-16T18:51:00.997Z,95.20
2023-03-16T18:53:28.957Z,95.10
2023-03-16T18:55:57.674Z,95.20
2023-03-16T18:58:26.030Z,95.30
2023-03-16T19:00:59.092Z,95.30
2023-03-16T19:03:30.074Z,95.50
2023-03-16T19:05:58.577Z,95.40
2023-03-16T19:08:28.943Z,95.40
2023-03-16T19:11:00.654Z,95.50
2023-03-16T19:13:28.487Z,95.60
2023-03-16T19:15:57.715Z,95.60
2023-03-16T19:18:26.306Z,95.60
2023-03-16T19:20:56.491Z,96.00
2023-03-16T19:23:32.580Z,95.80
2023-03-16T19:26:00.198Z,95.80
2023-03-16T19:28:36.628Z,95.90
2023-03-16T19:31:14.375Z,95.90
2023-03-16T19:33:42.042Z,95.90
2023-03-16T19:36:31.859Z,95.90
2023-03-16T19:38:59.831Z,96.00
2023-03-16T19:41:37.532Z,96.00
2023-03-16T19:44:19.810Z,96.20
2023-03-16T19:46:48.247Z,96.20
2023-03-16T19:49:22.858Z,96.20
2023-03-16T19:51:52.670Z,96.30
2023-03-16T19:54:31.444Z,96.30
2023-03-16T19:57:03.924Z,96.40
2023-03-16T19:59:34.464Z,96.50
2023-03-16T20:02:02.386Z,96.60
2023-03-16T20:04:31.316Z,96.70
2023-03-16T20:06:58.845Z,96.80
2023-03-16T20:09:26.237Z,96.90
2023-03-16T20:11:53.741Z,97.10
2023-03-16T20:14:32.536Z,97.20
2023-03-16T20:17:00.167Z,97.20
2023-03-16T20:19:28.680Z,97.30
2023-03-16T20:21:56.392Z,97.40
2023-03-16T20:24:24.610Z,97.40
2023-03-16T20:26:54.892Z,97.50
2023-03-16T20:29:33.292Z,97.60
2023-03-16T20:32:02.113Z,97.70
2023-03-16T20:34:31.422Z,97.80
2023-03-16T20:36:59.456Z,97.90
2023-03-16T20:39:28.309Z,97.90
2023-03-16T20:41:56.619Z,98.00
2023-03-16T20:44:25.393Z,98.00
2023-03-16T20:46:52.912Z,98.20
2023-03-16T20:49:23.648Z,98.30
2023-03-16T20:51:52.038Z,98.40
2023-03-16T20:54:19.587Z,98.50
2023-03-16T20:56:48.111Z,98.60
2023-03-16T20:59:24.812Z,98.80
2023-03-16T21:01:55.508Z,98.90
2023-03-16T21:04:27.530Z,99.00
2023-03-16T21:06:58.646Z,99.10
2023-03-16T21:09:28.502Z,99.20
2023-03-16T21:11:56.227Z,99.30
2023-03-16T21:14:24.870Z,99.70
2023-03-16T21:16:53.773Z,99.60
2023-03-16T21:19:22.999Z,99.70
2023-03-16T21:21:51.467Z,99.70
2023-03-16T21:24:19.907Z,99.80
2023-03-16T21:26:47.576Z,99.80
2023-03-16T21:29:21.325Z,99.80
2023-03-16T21:31:50.152Z,99.90
2023-03-16T21:34:33.475Z,99.90
2023-03-16T21:37:12.688Z,99.90
2023-03-16T21:39:41.467Z,99.90
2023-03-16T21:42:10.261Z,99.90
2023-03-16T21:44:38.121Z,99.90
2023-03-16T21:47:24.927Z,99.90
2023-03-16T21:49:55.467Z,99.90
2023-03-16T21:52:25.633Z,99.90
2023-03-16T21:54:54.363Z,99.90
2023-03-16T21:57:23.148Z,99.90
2023-03-16T21:59:51.302Z,99.90
2023-03-16T22:02:29.972Z,99.90
2023-03-16T22:04:58.350Z,99.90
2023-03-16T22:07:26.274Z,99.90
2023-03-16T22:09:53.746Z,99.90
2023-03-16T22:12:21.623Z,99.90
2023-03-16T22:14:49.402Z,99.90
2023-03-16T22:17:24.706Z,99.90
2023-03-16T22:19:52.262Z,99.90
2023-03-16T22:22:19.952Z,99.90
2023-03-16T22:24:47.493Z,99.90
2023-03-16T22:27:22.707Z,99.90
2023-03-16T22:29:51.269Z,99.90
2023-03-16T22:32:21.726Z,99.90
2023-03-16T22:34:52.973Z,99.90
2023-03-16T22:37:26.312Z,99.90
2023-03-16T22:39:54.519Z,99.90
2023-03-16T22:42:37.076Z,99.90
2023-03-16T22:45:21.433Z,99.90
2023-03-16T22:47:49.005Z,99.90
2023-03-16T22:50:18.673Z,99.90
2023-03-16T22:52:49.001Z,99.90
2023-03-16T22:55:21.514Z,99.90
2023-03-16T22:58:12.934Z,99.90
2023-03-16T23:00:41.184Z,99.90
2023-03-16T23:03:17.781Z,99.90
2023-03-16T23:05:46.198Z,99.90
2023-03-16T23:08:19.279Z,99.90
2023-03-16T23:10:48.273Z,99.90
2023-03-16T23:13:24.313Z,99.90
2023-03-16T23:15:53.604Z,99.90
2023-03-16T23:18:24.082Z,99.90
2023-03-16T23:20:52.485Z,99.90
2023-03-16T23:23:20.220Z,99.90
2023-03-16T23:25:48.275Z,99.90
2023-03-16T23:28:24.232Z,99.90
2023-03-16T23:30:51.731Z,99.90
2023-03-16T23:33:19.936Z,99.90
2023-03-16T23:35:47.534Z,99.90
2023-03-16T23:38:15.265Z,99.90
2023-03-16T23:40:42.811Z,99.90
2023-03-16T23:43:10.855Z,99.90
2023-03-16T23:45:42.229Z,99.90
2023-03-16T23:48:17.677Z,99.90
2023-03-16T23:50:48.587Z,99.90
2023-03-16T23:53:18.639Z,99.90
2023-03-16T23:55:47.390Z,99.90
2023-03-16T23:58:18.740Z,99.90
